| Date | Time | Temp. (oF) | Dew Point (oF) | Rel. Hum. (%) | Press. (in.) | Wind Dir. | Wind Speed (mph) | Hourly Rainfall (in.) |
|
|---|---|---|---|---|---|---|---|---|---|
| 1 | 07/29 | 00:00 | 71 | 63 | 77 | 29.91 | W | 0 | 0.00 |
| 2 | 07/28 | 23:00 | 74 | 63 | 71 | 29.90 | SSW | 0 | 0.00 |
| 3 | 07/28 | 22:00 | 75 | 63 | 68 | 29.89 | SW | 2 | 0.00 |
| 4 | 07/28 | 21:00 | 78 | 63 | 62 | 29.87 | S | 1 | 0.00 |
| 5 | 07/28 | 20:00 | 81 | 63 | 55 | 29.85 | S | 4 | 0.00 |
| 6 | 07/28 | 19:00 | 84 | 62 | 48 | 29.84 | S | 4 | 0.00 |
| 7 | 07/28 | 18:00 | 85 | 59 | 43 | 29.83 | WSW | 2 | 0.00 |
| 8 | 07/28 | 17:00 | 85 | 59 | 43 | 29.83 | SW | 6 | 0.00 |
| 9 | 07/28 | 16:00 | 85 | 57 | 39 | 29.84 | SSW | 6 | 0.00 |
| 10 | 07/28 | 15:00 | 86 | 60 | 43 | 29.86 | W | 3 | 0.00 |
| 11 | 07/28 | 14:00 | 85 | 61 | 45 | 29.88 | WSW | 4 | 0.00 |
| 12 | 07/28 | 13:00 | 83 | 62 | 50 | 29.90 | SSW | 3 | 0.00 |
| 13 | 07/28 | 12:00 | 81 | 61 | 51 | 29.91 | SSW | 0 | 0.00 |
| 14 | 07/28 | 11:00 | 79 | 63 | 60 | 29.91 | NW | 0 | 0.00 |
| 15 | miss | miss | miss | miss | miss | miss | miss | miss | |
| 16 | 07/27 | 13:07 | 78 | 72 | 82 | 29.77 | NW | 4 | 0.00 |
| 17 | miss | miss | miss | miss | miss | miss | miss | miss | |
| 18 | 07/27 | 13:05 | 79 | 72 | 80 | 29.77 | NNW | 3 | 0.00 |
| 19 | miss | miss | miss | miss | miss | miss | miss | miss | |
| 20 | 07/27 | 13:03 | 79 | 72 | 80 | 29.77 | WNW | 7 | 0.00 |
| 21 | miss | miss | miss | miss | miss | miss | miss | miss | |
| 22 | 07/27 | 13:01 | 79 | 71 | 78 | 29.78 | NW | 3 | 0.00 |
| 23 | miss | miss | miss | miss | miss | miss | miss | miss | |
| 24 | 07/27 | 12:59 | 79 | 71 | 78 | 29.78 | WNW | 2 | 0.00 |
| 25 | miss | miss | miss | miss | miss | miss | miss | miss | |
| 26 | 07/27 | 12:58 | 79 | 71 | 77 | 29.78 | WNW | 4 | 0.00 |
| 27 | miss | miss | miss | miss | miss | miss | miss | miss | |
| 28 | 07/27 | 12:58 | 79 | 71 | 77 | 29.78 | WNW | 4 | 0.00 |
| 29 | miss | miss | miss | miss | miss | miss | miss | miss | |
| 30 | 07/27 | 12:58 | 79 | 71 | 77 | 29.78 | WNW | 4 | 0.00 |
| 31 | miss | miss | miss | miss | miss | miss | miss | miss | |
| 32 | 07/27 | 12:58 | 79 | 71 | 77 | 29.78 | WNW | 4 | 0.00 |
| 33 | miss | miss | miss | miss | miss | miss | miss | miss | |
| 34 | 07/27 | 12:58 | 79 | 71 | 77 | 29.78 | WNW | 4 | 0.00 |
| 35 | miss | miss | miss | miss | miss | miss | miss | miss | |
| 36 | 07/27 | 12:58 | 79 | 71 | 77 | 29.78 | WNW | 4 | 0.00 |
| 37 | 07/27 | 12:00 | 84 | 72 | 69 | 29.79 | W | 9 | 0.00 |
| 38 | 07/27 | 11:00 | 81 | 71 | 74 | 29.82 | W | 0 | 0.00 |
| 39 | 07/27 | 10:00 | 79 | 71 | 77 | 29.81 | N | 0 | 0.00 |
| 40 | 07/27 | 09:00 | 76 | 70 | 84 | 29.81 | SW | 0 | 0.00 |
| 41 | 07/27 | 08:00 | 73 | 69 | 89 | 29.81 | S | 0 | 0.00 |
| 42 | 07/27 | 07:00 | 70 | 67 | 93 | 29.81 | SSW | 0 | 0.00 |
| 43 | 07/27 | 06:00 | 70 | 67 | 91 | 29.81 | SSW | 0 | 0.00 |
| 44 | 07/27 | 05:00 | 71 | 66 | 87 | 29.80 | SW | 0 | 0.00 |
| 45 | 07/27 | 04:00 | 73 | 67 | 83 | 29.80 | SW | 2 | 0.00 |
| 46 | 07/27 | 03:00 | 74 | 67 | 80 | 29.81 | SW | 2 | 0.00 |
| 47 | 07/27 | 02:00 | 75 | 69 | 82 | 29.82 | SW | 0 | 0.00 |
| 48 | 07/27 | 01:00 | 75 | 69 | 82 | 29.82 | S | 1 | 0.00 |
| 49 | 07/27 | 00:00 | 76 | 68 | 79 | 29.83 | S | 5 | 0.00 |
| 50 | 07/26 | 23:00 | 76 | 67 | 76 | 29.83 | S | 7 | 0.00 |
| 51 | 07/26 | 22:00 | 77 | 68 | 76 | 29.84 | S | 8 | 0.00 |
| 52 | 07/26 | 21:00 | 78 | 70 | 77 | 29.83 | S | 6 | 0.00 |
| 53 | 07/26 | 20:00 | 80 | 70 | 73 | 29.83 | SSW | 4 | 0.00 |
| 54 | 07/26 | 19:00 | 83 | 70 | 67 | 29.82 | S | 4 | 0.00 |
| 55 | 07/26 | 18:00 | 84 | 70 | 64 | 29.83 | SSE | 9 | 0.00 |
| 56 | 07/26 | 17:00 | 85 | 71 | 65 | 29.84 | SSW | 7 | 0.00 |
| 57 | 07/26 | 16:00 | 86 | 66 | 53 | 29.87 | SSW | 6 | 0.00 |
| 58 | 07/26 | 15:00 | 85 | 66 | 55 | 29.90 | SW | 7 | 0.00 |
| 59 | 07/26 | 14:00 | 86 | 66 | 53 | 29.92 | SW | 11 | 0.00 |
| 60 | 07/26 | 13:00 | 86 | 67 | 54 | 29.94 | SW | 9 | 0.00 |
| 61 | 07/26 | 12:00 | 83 | 66 | 57 | 29.96 | SSW | 6 | 0.00 |
| 62 | 07/26 | 11:00 | 81 | 67 | 64 | 29.98 | SW | 6 | 0.00 |
| 63 | 07/26 | 10:00 | 78 | 67 | 71 | 29.99 | SW | 6 | 0.00 |
| 64 | 07/26 | 09:00 | 74 | 65 | 76 | 30.01 | S | 5 | 0.00 |
| 65 | 07/26 | 08:00 | 69 | 65 | 89 | 30.02 | N | 0 | 0.00 |
| 66 | 07/26 | 07:00 | 66 | 63 | 93 | 30.02 | N | 0 | 0.00 |
| 67 | 07/26 | 06:00 | 66 | 63 | 92 | 30.02 | NNW | 0 | 0.00 |
| 68 | 07/26 | 05:00 | 67 | 63 | 90 | 30.02 | NNW | 0 | 0.00 |
| 69 | 07/26 | 04:00 | 67 | 63 | 89 | 30.03 | SW | 0 | 0.00 |
| 70 | 07/26 | 03:00 | 67 | 63 | 88 | 30.04 | SW | 0 | 0.00 |
| 71 | 07/26 | 02:00 | 66 | 62 | 88 | 30.05 | S | 0 | 0.00 |